createdAt,value
2018-05-23T00:01:58.300Z,97421.98
2018-05-23T00:07:20.509Z,97426.16
2018-05-23T00:09:50.212Z,97428.18
2018-05-23T00:12:19.792Z,97423.44
2018-05-23T00:14:51.254Z,97419.14
2018-05-23T00:17:20.913Z,97418.47
2018-05-23T00:19:57.652Z,97414.67
2018-05-23T00:22:31.080Z,97417.11
2018-05-23T00:25:27.876Z,97418.90
2018-05-23T00:31:13.963Z,97406.02
2018-05-23T00:33:44.068Z,97405.89
2018-05-23T00:36:13.806Z,97408.09
2018-05-23T00:38:44.590Z,97406.05
2018-05-23T00:41:14.333Z,97405.77
2018-05-23T00:43:44.116Z,97408.70
2018-05-23T00:46:13.627Z,97410.07
2018-05-23T00:48:43.423Z,97402.18
2018-05-23T00:51:13.220Z,97402.19
2018-05-23T00:53:44.139Z,97406.12
2018-05-23T00:56:17.770Z,97397.19
2018-05-23T00:58:49.765Z,97394.76
2018-05-23T01:01:21.001Z,97390.27
2018-05-23T01:03:53.117Z,97391.09
2018-05-23T01:06:24.957Z,97393.14
2018-05-23T01:08:55.516Z,97387.17
2018-05-23T01:11:25.826Z,97390.32
2018-05-23T01:13:55.661Z,97389.94
2018-05-23T01:16:25.568Z,97393.06
2018-05-23T01:18:55.572Z,97393.28
2018-05-23T01:21:26.129Z,97400.38
2018-05-23T01:23:57.447Z,97403.39
2018-05-23T01:26:27.463Z,97403.16
2018-05-23T01:28:58.192Z,97409.39
2018-05-23T01:31:28.057Z,97405.70
2018-05-23T01:33:58.601Z,97404.88
2018-05-23T01:36:29.087Z,97405.52
2018-05-23T01:38:58.909Z,97404.42
2018-05-23T01:41:29.004Z,97406.48
2018-05-23T01:43:59.117Z,97404.02
2018-05-23T01:46:41.327Z,97407.01
2018-05-23T01:49:27.973Z,97407.84
2018-05-23T01:51:58.006Z,97408.80
2018-05-23T01:54:27.644Z,97405.95
2018-05-23T01:56:57.306Z,97407.58
2018-05-23T01:59:27.819Z,97411.94
2018-05-23T02:01:57.657Z,97414.09
2018-05-23T02:04:33.495Z,97411.08
2018-05-23T02:07:16.919Z,97409.16
2018-05-23T02:09:47.335Z,97406.71
2018-05-23T02:12:18.694Z,97410.37
2018-05-23T02:14:48.614Z,97407.66
2018-05-23T02:17:18.062Z,97408.34
2018-05-23T02:19:50.355Z,97405.25
2018-05-23T02:22:21.626Z,97398.72
2018-05-23T02:24:52.322Z,97397.64
2018-05-23T02:27:22.997Z,97395.88
2018-05-23T02:29:52.609Z,97400.51
2018-05-23T02:32:22.904Z,97393.85
2018-05-23T02:34:52.927Z,97395.52
2018-05-23T02:37:22.851Z,97397.53
2018-05-23T02:39:52.555Z,97392.23
2018-05-23T02:42:22.064Z,97397.40
2018-05-23T02:44:51.577Z,97389.03
2018-05-23T02:47:22.922Z,97392.55
2018-05-23T02:49:52.515Z,97397.31
2018-05-23T02:52:22.387Z,97392.70
2018-05-23T02:58:03.470Z,97384.32
2018-05-23T03:00:34.490Z,97391.08
2018-05-23T03:03:04.235Z,97387.83
2018-05-23T03:05:33.896Z,97385.24
2018-05-23T03:08:03.605Z,97376.59
2018-05-23T03:10:33.105Z,97377.13
2018-05-23T03:13:02.844Z,97373.08
2018-05-23T03:15:32.450Z,97379.20
2018-05-23T03:18:02.861Z,97377.42
2018-05-23T03:20:32.774Z,97381.23
2018-05-23T03:23:03.155Z,97380.94
2018-05-23T03:25:34.158Z,97380.81
2018-05-23T03:31:11.691Z,97383.24
2018-05-23T03:33:43.057Z,97383.12
2018-05-23T03:36:13.037Z,97386.78
2018-05-23T03:38:42.744Z,97394.92
2018-05-23T03:41:13.027Z,97391.25
2018-05-23T03:43:42.862Z,97399.12
2018-05-23T03:46:13.099Z,97390.70
2018-05-23T03:48:42.698Z,97388.97
2018-05-23T03:51:13.642Z,97396.58
2018-05-23T03:53:43.540Z,97398.47
2018-05-23T03:56:13.385Z,97400.21
2018-05-23T03:58:43.153Z,97396.00
2018-05-23T04:01:30.532Z,97397.34
2018-05-23T04:04:25.024Z,97396.67
2018-05-23T04:10:07.131Z,97407.67
2018-05-23T04:12:37.029Z,97409.28
2018-05-23T04:15:06.963Z,97405.21
2018-05-23T04:17:37.309Z,97411.19
2018-05-23T04:20:08.241Z,97414.17
2018-05-23T04:22:39.145Z,97417.81
2018-05-23T04:25:08.733Z,97417.84
2018-05-23T04:27:38.289Z,97429.09
2018-05-23T04:30:08.060Z,97424.59
2018-05-23T04:32:37.933Z,97428.02
2018-05-23T04:35:08.952Z,97427.33
2018-05-23T04:37:39.277Z,97430.44
2018-05-23T04:40:08.922Z,97438.70
2018-05-23T04:42:38.914Z,97440.33
2018-05-23T04:45:08.499Z,97445.75
2018-05-23T04:47:45.199Z,97440.75
2018-05-23T04:50:14.888Z,97433.14
2018-05-23T04:52:47.215Z,97438.30
2018-05-23T04:55:17.624Z,97444.14
2018-05-23T04:57:47.299Z,97443.84
2018-05-23T05:00:18.011Z,97442.23
2018-05-23T05:02:48.069Z,97442.93
2018-05-23T05:05:18.696Z,97438.16
2018-05-23T05:07:49.737Z,97440.45
2018-05-23T05:10:20.939Z,97442.75
2018-05-23T05:12:51.738Z,97440.50
2018-05-23T05:15:22.354Z,97439.40
2018-05-23T05:17:52.748Z,97444.52
2018-05-23T05:20:22.401Z,97445.59
2018-05-23T05:22:52.195Z,97446.05
2018-05-23T05:25:22.221Z,97451.05
2018-05-23T05:27:53.162Z,97448.63
2018-05-23T05:30:23.005Z,97449.27
2018-05-23T05:32:52.897Z,97456.58
2018-05-23T05:35:29.566Z,97455.48
2018-05-23T05:38:00.415Z,97459.02
2018-05-23T05:40:32.260Z,97463.07
2018-05-23T05:43:02.420Z,97458.73
2018-05-23T05:45:32.937Z,97461.04
2018-05-23T05:48:03.273Z,97462.81
2018-05-23T05:50:34.388Z,97465.50
2018-05-23T05:53:05.090Z,97470.37
2018-05-23T05:55:34.751Z,97468.59
2018-05-23T05:58:05.140Z,97470.90
2018-05-23T06:00:34.881Z,97482.16
2018-05-23T06:03:04.387Z,97486.21
2018-05-23T06:05:34.284Z,97489.31
2018-05-23T06:08:04.156Z,97489.84
2018-05-23T06:10:34.002Z,97494.89
2018-05-23T06:13:03.554Z,97503.44
2018-05-23T06:15:33.884Z,97502.89
2018-05-23T06:18:03.527Z,97500.87
2018-05-23T06:20:33.146Z,97507.95
2018-05-23T06:23:03.749Z,97500.34
2018-05-23T06:25:33.482Z,97501.18
2018-05-23T06:28:03.065Z,97504.97
2018-05-23T06:30:32.616Z,97511.34
2018-05-23T06:33:02.759Z,97511.23
2018-05-23T06:35:32.311Z,97510.94
2018-05-23T06:38:02.382Z,97513.80
2018-05-23T06:40:32.350Z,97518.54
2018-05-23T06:43:02.678Z,97517.02
2018-05-23T06:45:32.284Z,97522.44
2018-05-23T06:48:03.546Z,97516.21
2018-05-23T06:50:33.236Z,97520.40
2018-05-23T06:53:03.182Z,97518.88
2018-05-23T06:55:33.089Z,97522.25
2018-05-23T06:58:02.960Z,97522.77
2018-05-23T07:00:32.823Z,97515.00
2018-05-23T07:03:03.573Z,97520.41
2018-05-23T07:05:36.070Z,97506.28
2018-05-23T07:08:06.617Z,97514.64
2018-05-23T07:10:37.089Z,97505.73
2018-05-23T07:13:06.651Z,97513.84
2018-05-23T07:15:36.438Z,97504.21
2018-05-23T07:18:06.489Z,97505.34
2018-05-23T07:20:36.133Z,97514.09
2018-05-23T07:23:06.057Z,97510.21
2018-05-23T07:25:35.778Z,97512.39
2018-05-23T07:28:06.166Z,97512.34
2018-05-23T07:30:37.231Z,97515.02
2018-05-23T07:33:08.890Z,97517.05
2018-05-23T07:35:38.551Z,97522.44
2018-05-23T07:38:08.853Z,97517.67
2018-05-23T07:40:39.845Z,97522.40
2018-05-23T07:43:09.411Z,97521.04
2018-05-23T07:45:39.908Z,97522.70
2018-05-23T07:48:10.432Z,97520.98
2018-05-23T07:50:40.296Z,97518.84
2018-05-23T07:53:09.966Z,97524.17
2018-05-23T07:55:40.493Z,97516.73
2018-05-23T07:58:10.404Z,97519.43
2018-05-23T08:00:40.906Z,97519.70
2018-05-23T08:03:10.623Z,97516.67
2018-05-23T08:05:43.162Z,97518.64
2018-05-23T08:08:22.941Z,97511.98
2018-05-23T08:10:54.083Z,97511.97
2018-05-23T08:13:23.566Z,97511.67
2018-05-23T08:15:54.036Z,97505.64
2018-05-23T08:18:24.159Z,97511.96
2018-05-23T08:20:53.979Z,97508.69
2018-05-23T08:23:23.843Z,97505.39
2018-05-23T08:25:54.831Z,97502.16
2018-05-23T08:28:25.619Z,97512.47
2018-05-23T08:30:56.264Z,97510.12
2018-05-23T08:33:26.106Z,97515.11
2018-05-23T08:35:56.709Z,97518.41
2018-05-23T08:38:26.405Z,97516.34
2018-05-23T08:40:55.971Z,97514.52
2018-05-23T08:43:25.544Z,97510.88
2018-05-23T08:45:55.676Z,97511.17
2018-05-23T08:48:25.303Z,97518.45
2018-05-23T08:50:54.922Z,97519.17
2018-05-23T08:53:24.562Z,97518.64
2018-05-23T08:55:55.056Z,97518.59
2018-05-23T08:58:24.667Z,97518.33
2018-05-23T09:00:54.340Z,97522.64
2018-05-23T09:06:05.103Z,97523.78
2018-05-23T09:08:35.712Z,97521.50
2018-05-23T09:11:05.417Z,97526.76
2018-05-23T09:13:35.088Z,97533.05
2018-05-23T09:16:05.325Z,97534.81
2018-05-23T09:18:35.108Z,97529.30
2018-05-23T09:21:05.990Z,97523.80
2018-05-23T09:23:35.722Z,97528.10
2018-05-23T09:26:05.395Z,97523.63
2018-05-23T09:28:35.093Z,97522.06
2018-05-23T09:31:04.611Z,97526.22
2018-05-23T09:33:34.315Z,97529.23
2018-05-23T09:36:03.958Z,97534.44
2018-05-23T09:38:34.330Z,97526.41
2018-05-23T09:41:05.000Z,97519.81
2018-05-23T09:43:34.825Z,97522.56
2018-05-23T09:46:04.420Z,97525.78
2018-05-23T09:48:34.014Z,97524.74
2018-05-23T09:51:03.751Z,97519.94
2018-05-23T09:53:33.343Z,97516.53
2018-05-23T09:56:03.061Z,97516.64
2018-05-23T09:58:34.254Z,97511.91
2018-05-23T10:01:04.425Z,97515.14
2018-05-23T10:03:34.100Z,97516.21
2018-05-23T10:06:03.778Z,97511.77
2018-05-23T10:08:33.573Z,97515.92
2018-05-23T10:11:07.110Z,97507.86
2018-05-23T10:14:05.277Z,97506.80
2018-05-23T10:19:40.000Z,97505.54
2018-05-23T10:22:09.873Z,97502.52
2018-05-23T10:24:39.834Z,97493.80
2018-05-23T10:27:09.515Z,97502.16
2018-05-23T10:29:39.267Z,97497.94
2018-05-23T10:32:08.985Z,97497.36
2018-05-23T10:34:38.767Z,97500.09
2018-05-23T10:37:08.421Z,97500.65
2018-05-23T10:39:37.993Z,97503.38
2018-05-23T10:42:07.592Z,97505.23
2018-05-23T10:44:37.191Z,97513.89
2018-05-23T10:47:06.697Z,97514.16
2018-05-23T10:49:37.623Z,97509.30
2018-05-23T10:52:07.282Z,97510.97
2018-05-23T10:54:36.988Z,97513.50
2018-05-23T10:57:06.782Z,97515.80
2018-05-23T10:59:36.490Z,97516.59
2018-05-23T11:02:06.867Z,97511.81
2018-05-23T11:04:36.419Z,97512.21
2018-05-23T11:07:06.264Z,97516.94
2018-05-23T11:09:36.098Z,97516.61
2018-05-23T11:12:05.743Z,97517.30
2018-05-23T11:14:35.472Z,97513.45
2018-05-23T11:17:05.490Z,97513.02
2018-05-23T11:19:35.095Z,97512.45
2018-05-23T11:22:04.669Z,97515.21
2018-05-23T11:24:34.520Z,97510.81
2018-05-23T11:27:04.236Z,97510.76
2018-05-23T11:29:35.147Z,97506.23
2018-05-23T11:32:04.775Z,97505.87
2018-05-23T11:34:34.432Z,97504.05
2018-05-23T11:37:04.812Z,97507.78
2018-05-23T11:39:34.416Z,97504.43
2018-05-23T11:42:04.248Z,97500.21
2018-05-23T11:44:33.815Z,97502.45
2018-05-23T11:47:15.129Z,97502.13
2018-05-23T11:49:45.429Z,97504.84
2018-05-23T11:52:15.103Z,97503.26
2018-05-23T11:54:44.819Z,97500.14
2018-05-23T11:57:15.204Z,97499.63
2018-05-23T11:59:45.729Z,97498.08
2018-05-23T12:02:15.341Z,97497.37
2018-05-23T12:04:44.920Z,97503.92
2018-05-23T12:07:14.527Z,97498.23
2018-05-23T12:09:44.149Z,97496.10
2018-05-23T12:12:13.984Z,97494.53
2018-05-23T12:14:44.711Z,97484.71
2018-05-23T12:17:14.396Z,97485.49
2018-05-23T12:19:48.631Z,97488.25
2018-05-23T12:22:18.301Z,97479.54
2018-05-23T12:24:48.032Z,97482.64
2018-05-23T12:27:17.779Z,97477.08
2018-05-23T12:29:47.467Z,97483.75
2018-05-23T12:32:17.353Z,97483.61
2018-05-23T12:34:47.101Z,97483.39
2018-05-23T12:37:16.979Z,97474.39
2018-05-23T12:39:46.832Z,97480.47
2018-05-23T12:42:16.726Z,97480.52
2018-05-23T12:44:46.335Z,97482.00
2018-05-23T12:47:16.015Z,97480.87
2018-05-23T12:49:45.585Z,97476.50
2018-05-23T12:52:15.201Z,97479.04
2018-05-23T12:54:45.016Z,97470.75
2018-05-23T12:57:14.706Z,97463.77
2018-05-23T12:59:44.626Z,97460.59
2018-05-23T13:02:14.241Z,97460.61
2018-05-23T13:04:43.724Z,97455.17
2018-05-23T13:07:13.456Z,97449.74
2018-05-23T13:09:43.063Z,97453.36
2018-05-23T13:12:12.652Z,97447.63
2018-05-23T13:14:42.322Z,97445.44
2018-05-23T13:17:12.615Z,97445.59
2018-05-23T13:19:43.432Z,97442.55
2018-05-23T13:22:12.937Z,97441.39
2018-05-23T13:24:42.477Z,97438.06
2018-05-23T13:27:12.886Z,97430.25
2018-05-23T13:29:43.453Z,97426.48
2018-05-23T13:32:13.074Z,97423.02
2018-05-23T13:34:43.398Z,97420.83
2018-05-23T13:37:12.981Z,97417.59
2018-05-23T13:39:42.666Z,97419.94
2018-05-23T13:42:12.258Z,97418.62
2018-05-23T13:44:42.079Z,97418.52
2018-05-23T13:47:11.710Z,97423.86
2018-05-23T13:49:41.364Z,97431.34
2018-05-23T13:52:11.948Z,97429.44
2018-05-23T13:54:42.262Z,97424.34
2018-05-23T13:57:12.789Z,97416.27
2018-05-23T13:59:42.923Z,97415.71
2018-05-23T14:02:12.953Z,97413.28
2018-05-23T14:04:43.022Z,97421.95
2018-05-23T14:07:13.019Z,97419.31
2018-05-23T14:09:43.417Z,97420.19
2018-05-23T14:12:13.436Z,97421.25
2018-05-23T14:14:57.391Z,97421.20
2018-05-23T14:17:53.904Z,97417.23
2018-05-23T14:27:04.385Z,97424.77
2018-05-23T14:29:34.323Z,97431.86
2018-05-23T14:32:05.053Z,97436.23
2018-05-23T14:34:34.719Z,97435.91
2018-05-23T14:37:05.337Z,97434.55
2018-05-23T14:39:35.828Z,97438.70
2018-05-23T14:42:05.356Z,97431.42
2018-05-23T14:44:35.049Z,97441.39
2018-05-23T14:47:04.746Z,97446.27
2018-05-23T14:49:35.488Z,97448.59
2018-05-23T14:52:05.220Z,97449.50
2018-05-23T14:54:34.990Z,97439.87
2018-05-23T14:57:04.934Z,97440.55
2018-05-23T14:59:34.640Z,97441.64
2018-05-23T15:02:04.795Z,97449.13
2018-05-23T15:04:35.509Z,97443.92
2018-05-23T15:07:05.324Z,97440.13
2018-05-23T15:09:35.112Z,97434.56
2018-05-23T15:12:04.869Z,97433.29
2018-05-23T15:14:34.461Z,97434.11
2018-05-23T15:17:03.969Z,97432.03
2018-05-23T15:19:33.692Z,97429.27
2018-05-23T15:22:04.965Z,97437.52
2018-05-23T15:24:35.545Z,97440.13
2018-05-23T15:27:05.241Z,97439.02
2018-05-23T15:29:34.868Z,97432.55
2018-05-23T15:32:04.473Z,97436.56
2018-05-23T15:34:34.145Z,97445.80
2018-05-23T15:37:04.507Z,97442.56
2018-05-23T15:39:34.121Z,97449.51
2018-05-23T15:42:04.955Z,97444.76
2018-05-23T15:44:36.108Z,97453.74
2018-05-23T15:47:06.628Z,97450.11
2018-05-23T15:49:36.992Z,97447.22
2018-05-23T15:52:07.225Z,97445.59
2018-05-23T15:54:37.776Z,97437.34
2018-05-23T15:57:08.239Z,97435.20
2018-05-23T15:59:38.207Z,97439.83
2018-05-23T16:02:08.615Z,97437.65
2018-05-23T16:04:39.161Z,97436.95
2018-05-23T16:07:09.115Z,97433.16
2018-05-23T16:09:38.639Z,97443.31
2018-05-23T16:12:08.148Z,97443.51
2018-05-23T16:14:38.323Z,97433.60
2018-05-23T16:17:23.253Z,97436.20
2018-05-23T16:19:52.966Z,97436.34
2018-05-23T16:22:22.854Z,97437.63
2018-05-23T16:24:53.886Z,97450.41
2018-05-23T16:27:23.808Z,97446.78
2018-05-23T16:29:53.736Z,97445.94
2018-05-23T16:32:23.440Z,97446.92
2018-05-23T16:34:53.057Z,97444.14
2018-05-23T16:37:22.626Z,97435.39
2018-05-23T16:39:53.832Z,97441.44
2018-05-23T16:42:23.339Z,97434.14
2018-05-23T16:44:53.699Z,97434.02
2018-05-23T16:47:23.453Z,97442.61
2018-05-23T16:49:53.045Z,97447.87
2018-05-23T16:52:24.313Z,97452.61
2018-05-23T16:54:54.025Z,97459.35
2018-05-23T16:57:23.772Z,97462.41
2018-05-23T16:59:53.365Z,97464.00
2018-05-23T17:02:23.781Z,97463.95
2018-05-23T17:04:53.906Z,97479.02
2018-05-23T17:07:23.490Z,97483.95
2018-05-23T17:09:53.102Z,97481.23
2018-05-23T17:12:22.757Z,97484.13
2018-05-23T17:14:52.736Z,97481.01
2018-05-23T17:17:22.744Z,97489.30
2018-05-23T17:19:52.547Z,97483.62
2018-05-23T17:22:22.797Z,97499.36
2018-05-23T17:25:05.399Z,97492.87
2018-05-23T17:27:37.061Z,97493.50
2018-05-23T17:30:07.067Z,97497.91
2018-05-23T17:32:36.981Z,97498.09
2018-05-23T17:35:06.697Z,97501.20
2018-05-23T17:37:36.526Z,97503.77
2018-05-23T17:40:06.729Z,97508.71
2018-05-23T17:42:36.444Z,97510.08
2018-05-23T17:45:06.277Z,97510.87
2018-05-23T17:47:35.902Z,97516.89
2018-05-23T17:50:05.702Z,97517.05
2018-05-23T17:52:36.045Z,97520.89
2018-05-23T17:55:05.817Z,97531.67
2018-05-23T17:57:35.512Z,97527.94
2018-05-23T18:00:05.308Z,97530.98
2018-05-23T18:02:35.032Z,97537.08
2018-05-23T18:05:05.506Z,97529.42
2018-05-23T18:07:35.181Z,97532.94
2018-05-23T18:10:05.024Z,97540.41
2018-05-23T18:12:34.814Z,97544.45
2018-05-23T18:15:06.000Z,97543.73
2018-05-23T18:17:36.587Z,97550.48
2018-05-23T18:20:06.333Z,97552.41
2018-05-23T18:22:36.599Z,97556.80
2018-05-23T18:25:06.540Z,97561.44
2018-05-23T18:27:36.199Z,97566.71
2018-05-23T18:30:06.060Z,97569.66
2018-05-23T18:32:35.875Z,97570.91
2018-05-23T18:35:06.050Z,97576.82
2018-05-23T18:37:36.786Z,97572.45
2018-05-23T18:40:07.362Z,97580.44
2018-05-23T18:42:37.842Z,97581.33
2018-05-23T18:45:07.809Z,97580.02
2018-05-23T18:47:37.615Z,97578.28
2018-05-23T18:50:09.274Z,97575.66
2018-05-23T18:52:38.779Z,97579.34
2018-05-23T18:55:09.820Z,97581.25
2018-05-23T18:57:39.370Z,97576.84
2018-05-23T19:00:09.856Z,97580.19
2018-05-23T19:02:39.572Z,97571.82
2018-05-23T19:05:09.229Z,97576.61
2018-05-23T19:07:39.698Z,97577.48
2018-05-23T19:10:09.885Z,97587.99
2018-05-23T19:12:39.538Z,97583.95
2018-05-23T19:15:09.165Z,97585.51
2018-05-23T19:17:38.701Z,97587.19
2018-05-23T19:20:09.233Z,97588.42
2018-05-23T19:22:39.021Z,97594.15
2018-05-23T19:25:08.913Z,97596.58
2018-05-23T19:27:38.730Z,97602.05
2018-05-23T19:30:08.299Z,97603.95
2018-05-23T19:32:37.836Z,97601.80
2018-05-23T19:35:08.640Z,97601.86
2018-05-23T19:37:38.276Z,97596.05
2018-05-23T19:40:07.991Z,97595.92
2018-05-23T19:42:37.640Z,97608.28
2018-05-23T19:45:07.220Z,97619.03
2018-05-23T19:47:36.793Z,97622.50
2018-05-23T19:50:06.376Z,97621.02
2018-05-23T19:52:36.111Z,97627.45
2018-05-23T19:55:05.677Z,97630.86
2018-05-23T19:57:37.605Z,97633.68
2018-05-23T20:00:07.425Z,97639.00
2018-05-23T20:02:37.176Z,97633.66
2018-05-23T20:05:06.962Z,97633.38
2018-05-23T20:07:36.663Z,97634.77
2018-05-23T20:10:06.264Z,97637.51
2018-05-23T20:12:35.943Z,97632.63
2018-05-23T20:15:05.569Z,97633.09
2018-05-23T20:17:35.297Z,97639.38
2018-05-23T20:20:05.027Z,97642.09
2018-05-23T20:22:34.627Z,97648.88
2018-05-23T20:25:04.507Z,97648.71
2018-05-23T20:27:34.868Z,97648.96
2018-05-23T20:30:04.640Z,97650.81
2018-05-23T20:32:35.007Z,97651.98
2018-05-23T20:35:04.722Z,97652.44
2018-05-23T20:37:34.707Z,97653.89
2018-05-23T20:40:05.123Z,97658.64
2018-05-23T20:42:34.775Z,97656.48
2018-05-23T20:45:04.500Z,97658.72
2018-05-23T20:47:34.087Z,97662.95
2018-05-23T20:50:03.698Z,97661.19
2018-05-23T20:52:33.643Z,97657.16
2018-05-23T20:55:03.816Z,97657.74
2018-05-23T20:57:33.358Z,97663.64
2018-05-23T21:00:04.067Z,97659.40
2018-05-23T21:02:33.656Z,97666.48
2018-05-23T21:05:03.637Z,97666.91
2018-05-23T21:07:33.212Z,97668.42
2018-05-23T21:10:03.093Z,97671.80
2018-05-23T21:12:32.978Z,97676.57
2018-05-23T21:15:04.278Z,97670.44
2018-05-23T21:17:33.945Z,97668.95
2018-05-23T21:20:03.590Z,97667.19
2018-05-23T21:22:33.203Z,97668.42
2018-05-23T21:25:03.835Z,97663.27
2018-05-23T21:27:33.427Z,97667.45
2018-05-23T21:30:04.341Z,97659.13
2018-05-23T21:32:35.903Z,97662.14
2018-05-23T21:35:06.375Z,97662.16
2018-05-23T21:37:35.994Z,97658.66
2018-05-23T21:40:06.996Z,97664.91
2018-05-23T21:42:37.285Z,97661.95
2018-05-23T21:45:06.897Z,97665.33
2018-05-23T21:47:36.545Z,97661.41
2018-05-23T21:50:07.813Z,97661.24
2018-05-23T21:52:38.215Z,97659.08
2018-05-23T21:58:38.997Z,97673.09
2018-05-23T22:01:08.900Z,97674.71
2018-05-23T22:03:39.624Z,97675.68
2018-05-23T22:06:09.920Z,97671.05
2018-05-23T22:08:40.400Z,97683.55
2018-05-23T22:11:10.105Z,97672.55
2018-05-23T22:13:40.014Z,97680.15
2018-05-23T22:16:09.591Z,97675.69
2018-05-23T22:18:39.093Z,97686.66
2018-05-23T22:21:09.015Z,97683.02
2018-05-23T22:24:06.366Z,97685.05
2018-05-23T22:26:36.201Z,97689.23
2018-05-23T22:29:05.963Z,97687.05
2018-05-23T22:31:35.499Z,97694.67
2018-05-23T22:34:05.135Z,97688.14
2018-05-23T22:36:34.872Z,97691.25
2018-05-23T22:39:06.023Z,97693.44
2018-05-23T22:41:36.631Z,97683.29
2018-05-23T22:44:06.339Z,97681.66
2018-05-23T22:46:36.655Z,97683.84
2018-05-23T22:49:07.307Z,97687.89
2018-05-23T22:55:03.661Z,97693.87
2018-05-23T22:57:33.694Z,97692.80
2018-05-23T23:00:06.725Z,97693.47
2018-05-23T23:02:37.620Z,97691.55
2018-05-23T23:05:08.236Z,97693.46
2018-05-23T23:07:37.765Z,97692.77
2018-05-23T23:10:08.876Z,97690.06
2018-05-23T23:12:38.522Z,97687.50
2018-05-23T23:15:08.181Z,97691.39
2018-05-23T23:17:37.725Z,97693.13
2018-05-23T23:20:07.428Z,97689.33
2018-05-23T23:22:40.050Z,97686.74
2018-05-23T23:25:10.709Z,97689.19
2018-05-23T23:27:41.205Z,97690.97
2018-05-23T23:30:11.279Z,97684.47
2018-05-23T23:32:40.930Z,97682.03
2018-05-23T23:35:10.573Z,97682.25
2018-05-23T23:37:40.482Z,97684.03
2018-05-23T23:40:11.058Z,97673.30
2018-05-23T23:42:41.697Z,97670.41
2018-05-23T23:45:11.322Z,97679.59
2018-05-23T23:47:44.193Z,97675.36
2018-05-23T23:50:14.538Z,97676.17
2018-05-23T23:52:46.764Z,97679.85
2018-05-23T23:55:18.423Z,97680.36
2018-05-23T23:57:48.065Z,97680.89
